sensor_id;sensor_type;location;lat;lon;timestamp;P1;durP1;ratioP1;P2;durP2;ratioP2
69900;SDS011;57183;50.930;5.406;2022-10-16T00:01:24;3.33;;;0.80;;
69900;SDS011;57183;50.930;5.406;2022-10-16T00:03:51;3.25;;;0.80;;
69900;SDS011;57183;50.930;5.406;2022-10-16T00:06:18;1.48;;;0.70;;
69900;SDS011;57183;50.930;5.406;2022-10-16T00:08:46;3.28;;;0.70;;
69900;SDS011;57183;50.930;5.406;2022-10-16T00:11:13;1.92;;;0.77;;
69900;SDS011;57183;50.930;5.406;2022-10-16T00:13:41;4.05;;;0.60;;
69900;SDS011;57183;50.930;5.406;2022-10-16T00:16:08;1.67;;;0.68;;
69900;SDS011;57183;50.930;5.406;2022-10-16T00:18:35;1.05;;;0.57;;
69900;SDS011;57183;50.930;5.406;2022-10-16T00:21:03;1.20;;;0.60;;
69900;SDS011;57183;50.930;5.406;2022-10-16T00:23:30;1.25;;;0.50;;
69900;SDS011;57183;50.930;5.406;2022-10-16T00:25:57;2.30;;;0.70;;
69900;SDS011;57183;50.930;5.406;2022-10-16T00:28:24;2.05;;;0.60;;
69900;SDS011;57183;50.930;5.406;2022-10-16T00:30:50;2.10;;;0.55;;
69900;SDS011;57183;50.930;5.406;2022-10-16T00:33:16;2.60;;;0.50;;
69900;SDS011;57183;50.930;5.406;2022-10-16T00:35:42;1.20;;;0.50;;
69900;SDS011;57183;50.930;5.406;2022-10-16T00:38:07;2.88;;;0.73;;
69900;SDS011;57183;50.930;5.406;2022-10-16T00:40:33;0.70;;;0.60;;
69900;SDS011;57183;50.930;5.406;2022-10-16T00:42:58;4.63;;;0.38;;
69900;SDS011;57183;50.930;5.406;2022-10-16T00:45:24;0.88;;;0.55;;
69900;SDS011;57183;50.930;5.406;2022-10-16T00:47:50;2.05;;;0.60;;
69900;SDS011;57183;50.930;5.406;2022-10-16T00:50:22;0.93;;;0.65;;
69900;SDS011;57183;50.930;5.406;2022-10-16T00:52:54;2.55;;;0.57;;
69900;SDS011;57183;50.930;5.406;2022-10-16T00:55:21;3.63;;;0.80;;
69900;SDS011;57183;50.930;5.406;2022-10-16T00:57:47;2.75;;;0.60;;
69900;SDS011;57183;50.930;5.406;2022-10-16T01:00:17;1.52;;;0.52;;
69900;SDS011;57183;50.930;5.406;2022-10-16T01:02:51;2.00;;;0.50;;
69900;SDS011;57183;50.930;5.406;2022-10-16T01:05:19;1.02;;;0.50;;
69900;SDS011;57183;50.930;5.406;2022-10-16T01:07:56;1.15;;;0.40;;
69900;SDS011;57183;50.930;5.406;2022-10-16T01:13:07;0.90;;;0.57;;
69900;SDS011;57183;50.930;5.406;2022-10-16T01:20:59;0.68;;;0.50;;
69900;SDS011;57183;50.930;5.406;2022-10-16T01:29:27;2.03;;;0.40;;
69900;SDS011;57183;50.930;5.406;2022-10-16T01:31:58;3.15;;;0.50;;
69900;SDS011;57183;50.930;5.406;2022-10-16T01:34:33;0.68;;;0.57;;
69900;SDS011;57183;50.930;5.406;2022-10-16T01:37:08;3.67;;;0.80;;
69900;SDS011;57183;50.930;5.406;2022-10-16T01:39:37;1.90;;;0.50;;
69900;SDS011;57183;50.930;5.406;2022-10-16T01:44:34;1.52;;;0.57;;
69900;SDS011;57183;50.930;5.406;2022-10-16T01:47:01;1.80;;;0.43;;
69900;SDS011;57183;50.930;5.406;2022-10-16T01:49:30;1.67;;;1.02;;
69900;SDS011;57183;50.930;5.406;2022-10-16T01:51:59;1.38;;;0.55;;
69900;SDS011;57183;50.930;5.406;2022-10-16T01:54:26;2.33;;;0.60;;
69900;SDS011;57183;50.930;5.406;2022-10-16T01:56:53;0.95;;;0.40;;
69900;SDS011;57183;50.930;5.406;2022-10-16T01:59:21;1.75;;;0.55;;
69900;SDS011;57183;50.930;5.406;2022-10-16T02:01:51;1.33;;;0.50;;
69900;SDS011;57183;50.930;5.406;2022-10-16T02:04:29;1.95;;;0.50;;
69900;SDS011;57183;50.930;5.406;2022-10-16T02:07:08;2.05;;;0.40;;
69900;SDS011;57183;50.930;5.406;2022-10-16T02:09:36;3.70;;;0.57;;
69900;SDS011;57183;50.930;5.406;2022-10-16T02:12:04;0.73;;;0.50;;
69900;SDS011;57183;50.930;5.406;2022-10-16T02:14:41;0.40;;;0.40;;
69900;SDS011;57183;50.930;5.406;2022-10-16T02:17:15;3.28;;;0.50;;
69900;SDS011;57183;50.930;5.406;2022-10-16T02:19:42;2.65;;;0.98;;
69900;SDS011;57183;50.930;5.406;2022-10-16T02:22:13;1.05;;;0.60;;
69900;SDS011;57183;50.930;5.406;2022-10-16T02:27:26;0.75;;;0.47;;
69900;SDS011;57183;50.930;5.406;2022-10-16T02:30:09;1.60;;;0.38;;
69900;SDS011;57183;50.930;5.406;2022-10-16T02:32:55;2.47;;;0.68;;
69900;SDS011;57183;50.930;5.406;2022-10-16T02:35:23;2.40;;;0.73;;
69900;SDS011;57183;50.930;5.406;2022-10-16T02:37:52;1.38;;;0.60;;
69900;SDS011;57183;50.930;5.406;2022-10-16T02:40:18;2.30;;;0.60;;
69900;SDS011;57183;50.930;5.406;2022-10-16T02:42:49;1.70;;;0.57;;
69900;SDS011;57183;50.930;5.406;2022-10-16T02:45:16;3.80;;;0.60;;
69900;SDS011;57183;50.930;5.406;2022-10-16T02:47:42;1.92;;;0.70;;
69900;SDS011;57183;50.930;5.406;2022-10-16T02:50:07;1.35;;;0.70;;
69900;SDS011;57183;50.930;5.406;2022-10-16T02:52:33;1.65;;;0.60;;
69900;SDS011;57183;50.930;5.406;2022-10-16T02:54:59;2.80;;;0.60;;
69900;SDS011;57183;50.930;5.406;2022-10-16T02:57:25;3.10;;;0.63;;
69900;SDS011;57183;50.930;5.406;2022-10-16T02:59:50;0.60;;;0.40;;
69900;SDS011;57183;50.930;5.406;2022-10-16T03:02:16;1.15;;;0.70;;
69900;SDS011;57183;50.930;5.406;2022-10-16T03:04:42;3.03;;;0.50;;
69900;SDS011;57183;50.930;5.406;2022-10-16T03:07:08;1.15;;;0.70;;
69900;SDS011;57183;50.930;5.406;2022-10-16T03:09:33;0.60;;;0.50;;
69900;SDS011;57183;50.930;5.406;2022-10-16T03:11:59;1.10;;;0.70;;
69900;SDS011;57183;50.930;5.406;2022-10-16T03:14:25;5.22;;;1.00;;
69900;SDS011;57183;50.930;5.406;2022-10-16T03:16:50;0.55;;;0.55;;
69900;SDS011;57183;50.930;5.406;2022-10-16T03:19:16;1.50;;;0.60;;
69900;SDS011;57183;50.930;5.406;2022-10-16T03:21:42;2.85;;;1.05;;
69900;SDS011;57183;50.930;5.406;2022-10-16T03:24:08;0.52;;;0.47;;
69900;SDS011;57183;50.930;5.406;2022-10-16T03:26:34;1.15;;;0.82;;
69900;SDS011;57183;50.930;5.406;2022-10-16T03:29:00;3.38;;;0.70;;
69900;SDS011;57183;50.930;5.406;2022-10-16T03:31:27;1.17;;;0.70;;
69900;SDS011;57183;50.930;5.406;2022-10-16T03:33:53;1.48;;;0.60;;
69900;SDS011;57183;50.930;5.406;2022-10-16T03:36:18;1.52;;;0.80;;
69900;SDS011;57183;50.930;5.406;2022-10-16T03:38:44;1.55;;;0.60;;
69900;SDS011;57183;50.930;5.406;2022-10-16T03:41:10;2.20;;;0.73;;
69900;SDS011;57183;50.930;5.406;2022-10-16T03:43:35;2.13;;;1.38;;
69900;SDS011;57183;50.930;5.406;2022-10-16T03:46:01;1.40;;;0.85;;
69900;SDS011;57183;50.930;5.406;2022-10-16T03:48:27;2.15;;;0.77;;
69900;SDS011;57183;50.930;5.406;2022-10-16T03:50:52;2.05;;;0.88;;
69900;SDS011;57183;50.930;5.406;2022-10-16T03:53:18;1.90;;;1.05;;
69900;SDS011;57183;50.930;5.406;2022-10-16T03:55:44;2.90;;;0.73;;
69900;SDS011;57183;50.930;5.406;2022-10-16T03:58:10;1.95;;;0.88;;
69900;SDS011;57183;50.930;5.406;2022-10-16T04:00:39;2.63;;;1.05;;
69900;SDS011;57183;50.930;5.406;2022-10-16T04:03:06;3.35;;;1.00;;
69900;SDS011;57183;50.930;5.406;2022-10-16T04:05:32;2.47;;;0.90;;
69900;SDS011;57183;50.930;5.406;2022-10-16T04:07:57;2.50;;;0.70;;
69900;SDS011;57183;50.930;5.406;2022-10-16T04:10:23;2.15;;;0.90;;
69900;SDS011;57183;50.930;5.406;2022-10-16T04:12:49;2.33;;;1.10;;
69900;SDS011;57183;50.930;5.406;2022-10-16T04:15:14;1.05;;;0.85;;
69900;SDS011;57183;50.930;5.406;2022-10-16T04:17:40;3.00;;;0.90;;
69900;SDS011;57183;50.930;5.406;2022-10-16T04:20:06;1.60;;;1.00;;
69900;SDS011;57183;50.930;5.406;2022-10-16T04:22:32;1.40;;;0.80;;
69900;SDS011;57183;50.930;5.406;2022-10-16T04:24:57;1.83;;;0.95;;
69900;SDS011;57183;50.930;5.406;2022-10-16T04:27:23;3.28;;;1.02;;
69900;SDS011;57183;50.930;5.406;2022-10-16T04:29:49;2.03;;;0.98;;
69900;SDS011;57183;50.930;5.406;2022-10-16T04:32:14;3.25;;;1.00;;
69900;SDS011;57183;50.930;5.406;2022-10-16T04:34:40;2.75;;;1.23;;
69900;SDS011;57183;50.930;5.406;2022-10-16T04:37:06;2.15;;;1.27;;
69900;SDS011;57183;50.930;5.406;2022-10-16T04:39:32;2.38;;;1.33;;
69900;SDS011;57183;50.930;5.406;2022-10-16T04:41:57;3.03;;;1.30;;
69900;SDS011;57183;50.930;5.406;2022-10-16T04:44:23;1.50;;;1.15;;
69900;SDS011;57183;50.930;5.406;2022-10-16T04:46:52;1.67;;;1.13;;
69900;SDS011;57183;50.930;5.406;2022-10-16T04:49:17;1.38;;;1.27;;
69900;SDS011;57183;50.930;5.406;2022-10-16T04:51:43;3.00;;;1.40;;
69900;SDS011;57183;50.930;5.406;2022-10-16T04:54:09;3.75;;;1.27;;
69900;SDS011;57183;50.930;5.406;2022-10-16T04:56:35;1.85;;;1.50;;
69900;SDS011;57183;50.930;5.406;2022-10-16T04:59:08;2.10;;;1.48;;
69900;SDS011;57183;50.930;5.406;2022-10-16T05:01:34;3.85;;;1.50;;
69900;SDS011;57183;50.930;5.406;2022-10-16T05:03:59;2.80;;;2.00;;
69900;SDS011;57183;50.930;5.406;2022-10-16T05:06:26;2.78;;;1.45;;
69900;SDS011;57183;50.930;5.406;2022-10-16T05:08:51;1.95;;;1.40;;
69900;SDS011;57183;50.930;5.406;2022-10-16T05:11:17;4.65;;;1.70;;
69900;SDS011;57183;50.930;5.406;2022-10-16T05:13:43;3.45;;;1.92;;
69900;SDS011;57183;50.930;5.406;2022-10-16T05:16:08;2.58;;;2.00;;
69900;SDS011;57183;50.930;5.406;2022-10-16T05:18:34;2.45;;;1.70;;
69900;SDS011;57183;50.930;5.406;2022-10-16T05:21:00;3.10;;;2.15;;
69900;SDS011;57183;50.930;5.406;2022-10-16T05:23:25;2.50;;;1.73;;
69900;SDS011;57183;50.930;5.406;2022-10-16T05:25:52;2.83;;;2.10;;
69900;SDS011;57183;50.930;5.406;2022-10-16T05:28:19;4.65;;;1.95;;
69900;SDS011;57183;50.930;5.406;2022-10-16T05:30:45;3.05;;;2.15;;
69900;SDS011;57183;50.930;5.406;2022-10-16T05:33:11;4.43;;;2.10;;
69900;SDS011;57183;50.930;5.406;2022-10-16T05:35:36;2.92;;;2.17;;
69900;SDS011;57183;50.930;5.406;2022-10-16T05:38:02;2.95;;;2.10;;
69900;SDS011;57183;50.930;5.406;2022-10-16T05:40:28;3.40;;;2.00;;
69900;SDS011;57183;50.930;5.406;2022-10-16T05:42:56;2.53;;;2.25;;
69900;SDS011;57183;50.930;5.406;2022-10-16T05:45:22;2.65;;;2.45;;
69900;SDS011;57183;50.930;5.406;2022-10-16T05:47:48;3.05;;;2.15;;
69900;SDS011;57183;50.930;5.406;2022-10-16T05:50:13;3.47;;;2.45;;
69900;SDS011;57183;50.930;5.406;2022-10-16T05:52:39;2.47;;;2.28;;
69900;SDS011;57183;50.930;5.406;2022-10-16T05:55:05;2.45;;;2.22;;
69900;SDS011;57183;50.930;5.406;2022-10-16T05:57:31;2.20;;;2.00;;
69900;SDS011;57183;50.930;5.406;2022-10-16T05:59:56;4.18;;;2.47;;
69900;SDS011;57183;50.930;5.406;2022-10-16T06:02:22;5.32;;;2.28;;
69900;SDS011;57183;50.930;5.406;2022-10-16T06:04:48;4.00;;;2.40;;
69900;SDS011;57183;50.930;5.406;2022-10-16T06:07:13;2.78;;;2.38;;
69900;SDS011;57183;50.930;5.406;2022-10-16T06:09:39;3.05;;;2.75;;
69900;SDS011;57183;50.930;5.406;2022-10-16T06:12:05;3.22;;;2.47;;
69900;SDS011;57183;50.930;5.406;2022-10-16T06:14:30;6.35;;;2.63;;
69900;SDS011;57183;50.930;5.406;2022-10-16T06:16:57;3.58;;;2.55;;
69900;SDS011;57183;50.930;5.406;2022-10-16T06:19:23;5.03;;;2.20;;
69900;SDS011;57183;50.930;5.406;2022-10-16T06:21:48;5.15;;;2.35;;
69900;SDS011;57183;50.930;5.406;2022-10-16T06:24:14;4.07;;;2.45;;
69900;SDS011;57183;50.930;5.406;2022-10-16T06:26:40;2.80;;;2.00;;
69900;SDS011;57183;50.930;5.406;2022-10-16T06:29:05;4.53;;;2.55;;
69900;SDS011;57183;50.930;5.406;2022-10-16T06:31:31;3.17;;;2.30;;
69900;SDS011;57183;50.930;5.406;2022-10-16T06:33:58;2.28;;;2.08;;
69900;SDS011;57183;50.930;5.406;2022-10-16T06:36:25;2.60;;;1.98;;
69900;SDS011;57183;50.930;5.406;2022-10-16T06:38:51;2.70;;;2.25;;
69900;SDS011;57183;50.930;5.406;2022-10-16T06:41:18;5.45;;;2.53;;
69900;SDS011;57183;50.930;5.406;2022-10-16T06:43:45;7.15;;;2.72;;
69900;SDS011;57183;50.930;5.406;2022-10-16T06:46:12;3.05;;;1.90;;
69900;SDS011;57183;50.930;5.406;2022-10-16T06:48:39;3.03;;;1.90;;
69900;SDS011;57183;50.930;5.406;2022-10-16T06:51:06;3.33;;;2.10;;
69900;SDS011;57183;50.930;5.406;2022-10-16T06:53:35;6.40;;;2.30;;
69900;SDS011;57183;50.930;5.406;2022-10-16T06:58:41;3.75;;;2.42;;
69900;SDS011;57183;50.930;5.406;2022-10-16T07:01:08;3.17;;;2.83;;
69900;SDS011;57183;50.930;5.406;2022-10-16T07:03:36;3.33;;;2.50;;
69900;SDS011;57183;50.930;5.406;2022-10-16T07:06:04;2.50;;;2.30;;
69900;SDS011;57183;50.930;5.406;2022-10-16T07:08:31;3.60;;;2.95;;
69900;SDS011;57183;50.930;5.406;2022-10-16T07:11:02;4.50;;;2.33;;
69900;SDS011;57183;50.930;5.406;2022-10-16T07:13:29;2.97;;;2.15;;
69900;SDS011;57183;50.930;5.406;2022-10-16T07:15:57;2.47;;;2.28;;
69900;SDS011;57183;50.930;5.406;2022-10-16T07:18:23;2.33;;;2.10;;
69900;SDS011;57183;50.930;5.406;2022-10-16T07:20:51;2.38;;;1.85;;
69900;SDS011;57183;50.930;5.406;2022-10-16T07:23:17;2.45;;;1.70;;
69900;SDS011;57183;50.930;5.406;2022-10-16T07:25:43;3.70;;;1.73;;
69900;SDS011;57183;50.930;5.406;2022-10-16T07:28:09;4.00;;;2.00;;
69900;SDS011;57183;50.930;5.406;2022-10-16T07:30:35;4.15;;;1.92;;
69900;SDS011;57183;50.930;5.406;2022-10-16T07:33:02;3.80;;;1.65;;
69900;SDS011;57183;50.930;5.406;2022-10-16T07:35:28;4.55;;;1.65;;
69900;SDS011;57183;50.930;5.406;2022-10-16T07:37:54;2.65;;;1.42;;
69900;SDS011;57183;50.930;5.406;2022-10-16T07:40:20;2.20;;;1.85;;
69900;SDS011;57183;50.930;5.406;2022-10-16T07:42:46;2.17;;;1.42;;
69900;SDS011;57183;50.930;5.406;2022-10-16T07:45:12;3.15;;;1.38;;
69900;SDS011;57183;50.930;5.406;2022-10-16T07:47:37;1.80;;;1.50;;
69900;SDS011;57183;50.930;5.406;2022-10-16T07:50:03;2.22;;;1.45;;
69900;SDS011;57183;50.930;5.406;2022-10-16T07:52:29;3.58;;;1.52;;
69900;SDS011;57183;50.930;5.406;2022-10-16T07:54:55;6.30;;;2.85;;
69900;SDS011;57183;50.930;5.406;2022-10-16T07:57:20;4.05;;;1.10;;
69900;SDS011;57183;50.930;5.406;2022-10-16T07:59:46;1.40;;;1.30;;
69900;SDS011;57183;50.930;5.406;2022-10-16T08:02:12;1.45;;;1.23;;
69900;SDS011;57183;50.930;5.406;2022-10-16T08:04:37;4.72;;;1.45;;
69900;SDS011;57183;50.930;5.406;2022-10-16T08:07:03;8.73;;;1.38;;
69900;SDS011;57183;50.930;5.406;2022-10-16T08:09:29;1.52;;;1.00;;
69900;SDS011;57183;50.930;5.406;2022-10-16T08:11:54;3.50;;;0.90;;
69900;SDS011;57183;50.930;5.406;2022-10-16T08:14:20;3.15;;;1.35;;
69900;SDS011;57183;50.930;5.406;2022-10-16T08:16:46;4.20;;;2.15;;
69900;SDS011;57183;50.930;5.406;2022-10-16T08:19:11;26.48;;;10.20;;
69900;SDS011;57183;50.930;5.406;2022-10-16T08:21:37;10.05;;;6.03;;
69900;SDS011;57183;50.930;5.406;2022-10-16T08:24:03;14.98;;;4.47;;
69900;SDS011;57183;50.930;5.406;2022-10-16T08:26:28;17.48;;;7.97;;
69900;SDS011;57183;50.930;5.406;2022-10-16T08:28:55;12.30;;;5.32;;
69900;SDS011;57183;50.930;5.406;2022-10-16T08:31:21;16.85;;;7.85;;
69900;SDS011;57183;50.930;5.406;2022-10-16T08:33:47;20.27;;;9.88;;
69900;SDS011;57183;50.930;5.406;2022-10-16T08:36:13;29.65;;;9.35;;
69900;SDS011;57183;50.930;5.406;2022-10-16T08:38:40;21.83;;;8.60;;
69900;SDS011;57183;50.930;5.406;2022-10-16T08:49:16;9.95;;;5.25;;
69900;SDS011;57183;50.930;5.406;2022-10-16T08:51:42;10.35;;;4.80;;
69900;SDS011;57183;50.930;5.406;2022-10-16T08:56:43;6.78;;;3.47;;
69900;SDS011;57183;50.930;5.406;2022-10-16T08:59:10;6.60;;;2.88;;
69900;SDS011;57183;50.930;5.406;2022-10-16T09:01:46;4.95;;;1.98;;
69900;SDS011;57183;50.930;5.406;2022-10-16T09:07:04;2.50;;;0.88;;
69900;SDS011;57183;50.930;5.406;2022-10-16T09:10:01;2.50;;;0.90;;
69900;SDS011;57183;50.930;5.406;2022-10-16T09:12:39;2.72;;;1.00;;
69900;SDS011;57183;50.930;5.406;2022-10-16T09:23:44;1.92;;;0.70;;
69900;SDS011;57183;50.930;5.406;2022-10-16T09:26:11;2.13;;;0.73;;
69900;SDS011;57183;50.930;5.406;2022-10-16T09:28:39;2.40;;;0.63;;
69900;SDS011;57183;50.930;5.406;2022-10-16T09:31:05;2.38;;;0.80;;
69900;SDS011;57183;50.930;5.406;2022-10-16T09:33:33;3.53;;;0.90;;
69900;SDS011;57183;50.930;5.406;2022-10-16T09:36:02;4.07;;;0.80;;
69900;SDS011;57183;50.930;5.406;2022-10-16T09:38:30;1.00;;;0.70;;
69900;SDS011;57183;50.930;5.406;2022-10-16T09:40:58;1.23;;;0.88;;
69900;SDS011;57183;50.930;5.406;2022-10-16T09:46:05;2.53;;;1.33;;
69900;SDS011;57183;50.930;5.406;2022-10-16T09:48:49;2.22;;;0.70;;
69900;SDS011;57183;50.930;5.406;2022-10-16T09:51:22;2.22;;;0.70;;
69900;SDS011;57183;50.930;5.406;2022-10-16T09:54:00;2.08;;;0.70;;
69900;SDS011;57183;50.930;5.406;2022-10-16T09:56:28;5.00;;;0.80;;
69900;SDS011;57183;50.930;5.406;2022-10-16T09:58:57;2.50;;;0.70;;
69900;SDS011;57183;50.930;5.406;2022-10-16T10:01:52;1.45;;;0.60;;
69900;SDS011;57183;50.930;5.406;2022-10-16T10:04:20;3.70;;;0.52;;
69900;SDS011;57183;50.930;5.406;2022-10-16T10:06:49;3.42;;;0.85;;
69900;SDS011;57183;50.930;5.406;2022-10-16T10:09:30;2.08;;;0.57;;
69900;SDS011;57183;50.930;5.406;2022-10-16T10:11:57;3.13;;;0.60;;
69900;SDS011;57183;50.930;5.406;2022-10-16T10:19:47;1.88;;;0.68;;
69900;SDS011;57183;50.930;5.406;2022-10-16T10:24:45;5.25;;;1.25;;
69900;SDS011;57183;50.930;5.406;2022-10-16T10:27:32;1.83;;;0.60;;
69900;SDS011;57183;50.930;5.406;2022-10-16T10:33:20;2.47;;;0.70;;
69900;SDS011;57183;50.930;5.406;2022-10-16T10:36:08;2.33;;;0.55;;
69900;SDS011;57183;50.930;5.406;2022-10-16T10:38:39;6.85;;;0.82;;
69900;SDS011;57183;50.930;5.406;2022-10-16T10:46:56;1.08;;;0.50;;
69900;SDS011;57183;50.930;5.406;2022-10-16T10:49:33;1.30;;;0.38;;
69900;SDS011;57183;50.930;5.406;2022-10-16T11:01:16;1.95;;;0.40;;
69900;SDS011;57183;50.930;5.406;2022-10-16T11:06:29;17.83;;;10.23;;
69900;SDS011;57183;50.930;5.406;2022-10-16T11:14:24;22.98;;;14.18;;
69900;SDS011;57183;50.930;5.406;2022-10-16T11:17:35;8.63;;;5.70;;
69900;SDS011;57183;50.930;5.406;2022-10-16T11:22:53;4.18;;;0.85;;
69900;SDS011;57183;50.930;5.406;2022-10-16T11:25:39;5.00;;;2.30;;
69900;SDS011;57183;50.930;5.406;2022-10-16T11:31:03;3.75;;;1.70;;
69900;SDS011;57183;50.930;5.406;2022-10-16T11:36:19;12.45;;;5.82;;
69900;SDS011;57183;50.930;5.406;2022-10-16T11:41:32;13.07;;;9.07;;
69900;SDS011;57183;50.930;5.406;2022-10-16T11:46:57;3.28;;;0.88;;
69900;SDS011;57183;50.930;5.406;2022-10-16T11:49:37;9.93;;;7.45;;
69900;SDS011;57183;50.930;5.406;2022-10-16T11:57:17;2.30;;;0.60;;
69900;SDS011;57183;50.930;5.406;2022-10-16T12:05:19;2.90;;;0.80;;
69900;SDS011;57183;50.930;5.406;2022-10-16T12:08:09;3.20;;;0.70;;
69900;SDS011;57183;50.930;5.406;2022-10-16T12:10:39;1.45;;;0.50;;
69900;SDS011;57183;50.930;5.406;2022-10-16T12:16:04;2.38;;;0.70;;
69900;SDS011;57183;50.930;5.406;2022-10-16T12:18:31;3.70;;;0.88;;
69900;SDS011;57183;50.930;5.406;2022-10-16T12:20:57;2.95;;;1.58;;
69900;SDS011;57183;50.930;5.406;2022-10-16T12:23:24;1.73;;;0.50;;
69900;SDS011;57183;50.930;5.406;2022-10-16T12:25:54;1.35;;;0.30;;
69900;SDS011;57183;50.930;5.406;2022-10-16T12:28:22;0.68;;;0.40;;
69900;SDS011;57183;50.930;5.406;2022-10-16T12:31:02;3.88;;;0.68;;
69900;SDS011;57183;50.930;5.406;2022-10-16T12:36:02;3.33;;;0.45;;
69900;SDS011;57183;50.930;5.406;2022-10-16T12:38:32;3.38;;;1.05;;
69900;SDS011;57183;50.930;5.406;2022-10-16T12:41:12;1.65;;;0.60;;
69900;SDS011;57183;50.930;5.406;2022-10-16T12:43:50;1.48;;;0.60;;
69900;SDS011;57183;50.930;5.406;2022-10-16T12:48:42;3.75;;;0.80;;
69900;SDS011;57183;50.930;5.406;2022-10-16T12:54:00;3.97;;;1.20;;
69900;SDS011;57183;50.930;5.406;2022-10-16T12:56:46;2.40;;;0.93;;
69900;SDS011;57183;50.930;5.406;2022-10-16T13:02:37;3.63;;;0.40;;
69900;SDS011;57183;50.930;5.406;2022-10-16T13:07:53;2.92;;;0.70;;
69900;SDS011;57183;50.930;5.406;2022-10-16T13:10:51;2.67;;;0.28;;
69900;SDS011;57183;50.930;5.406;2022-10-16T13:19:14;1.17;;;0.50;;
69900;SDS011;57183;50.930;5.406;2022-10-16T13:30:00;2.67;;;0.40;;
69900;SDS011;57183;50.930;5.406;2022-10-16T13:32:34;3.00;;;0.32;;
69900;SDS011;57183;50.930;5.406;2022-10-16T13:35:00;2.60;;;0.45;;
69900;SDS011;57183;50.930;5.406;2022-10-16T13:37:26;1.42;;;0.47;;
69900;SDS011;57183;50.930;5.406;2022-10-16T13:40:02;1.98;;;0.50;;
69900;SDS011;57183;50.930;5.406;2022-10-16T13:42:42;1.65;;;0.30;;
69900;SDS011;57183;50.930;5.406;2022-10-16T13:45:17;1.00;;;0.40;;
69900;SDS011;57183;50.930;5.406;2022-10-16T13:47:46;1.60;;;0.50;;
69900;SDS011;57183;50.930;5.406;2022-10-16T13:50:13;1.92;;;0.40;;
69900;SDS011;57183;50.930;5.406;2022-10-16T13:52:42;2.20;;;0.50;;
69900;SDS011;57183;50.930;5.406;2022-10-16T13:55:15;2.72;;;0.40;;
69900;SDS011;57183;50.930;5.406;2022-10-16T13:57:42;2.92;;;0.40;;
69900;SDS011;57183;50.930;5.406;2022-10-16T14:00:18;2.30;;;0.30;;
69900;SDS011;57183;50.930;5.406;2022-10-16T14:03:01;0.55;;;0.20;;
69900;SDS011;57183;50.930;5.406;2022-10-16T14:05:29;4.40;;;0.60;;
69900;SDS011;57183;50.930;5.406;2022-10-16T14:07:54;1.08;;;0.50;;
69900;SDS011;57183;50.930;5.406;2022-10-16T14:10:22;2.40;;;0.40;;
69900;SDS011;57183;50.930;5.406;2022-10-16T14:13:05;3.38;;;0.40;;
69900;SDS011;57183;50.930;5.406;2022-10-16T14:15:32;1.45;;;0.50;;
69900;SDS011;57183;50.930;5.406;2022-10-16T14:18:01;2.15;;;0.40;;
69900;SDS011;57183;50.930;5.406;2022-10-16T14:20:32;4.32;;;0.52;;
69900;SDS011;57183;50.930;5.406;2022-10-16T14:25:53;2.38;;;0.40;;
69900;SDS011;57183;50.930;5.406;2022-10-16T14:28:19;2.90;;;0.30;;
69900;SDS011;57183;50.930;5.406;2022-10-16T14:30:53;3.78;;;0.65;;
69900;SDS011;57183;50.930;5.406;2022-10-16T14:33:39;3.08;;;0.70;;
69900;SDS011;57183;50.930;5.406;2022-10-16T14:36:12;2.20;;;0.43;;
69900;SDS011;57183;50.930;5.406;2022-10-16T14:38:43;3.97;;;0.20;;
69900;SDS011;57183;50.930;5.406;2022-10-16T14:41:16;0.90;;;0.40;;
69900;SDS011;57183;50.930;5.406;2022-10-16T14:43:49;2.75;;;0.40;;
69900;SDS011;57183;50.930;5.406;2022-10-16T14:46:20;0.98;;;0.30;;
69900;SDS011;57183;50.930;5.406;2022-10-16T14:48:51;1.20;;;0.40;;
69900;SDS011;57183;50.930;5.406;2022-10-16T14:51:38;2.05;;;0.50;;
69900;SDS011;57183;50.930;5.406;2022-10-16T14:54:09;1.55;;;0.45;;
69900;SDS011;57183;50.930;5.406;2022-10-16T14:56:55;1.45;;;0.50;;
69900;SDS011;57183;50.930;5.406;2022-10-16T14:59:30;2.95;;;0.52;;
69900;SDS011;57183;50.930;5.406;2022-10-16T15:02:02;4.88;;;0.98;;
69900;SDS011;57183;50.930;5.406;2022-10-16T15:04:47;2.67;;;0.70;;
69900;SDS011;57183;50.930;5.406;2022-10-16T15:07:13;1.20;;;0.50;;
69900;SDS011;57183;50.930;5.406;2022-10-16T15:09:39;1.75;;;0.52;;
69900;SDS011;57183;50.930;5.406;2022-10-16T15:12:04;2.58;;;0.60;;
69900;SDS011;57183;50.930;5.406;2022-10-16T15:14:30;3.30;;;0.70;;
69900;SDS011;57183;50.930;5.406;2022-10-16T15:16:56;1.50;;;0.60;;
69900;SDS011;57183;50.930;5.406;2022-10-16T15:19:22;2.83;;;0.80;;
69900;SDS011;57183;50.930;5.406;2022-10-16T15:21:48;2.88;;;0.60;;
69900;SDS011;57183;50.930;5.406;2022-10-16T15:24:14;1.30;;;0.80;;
69900;SDS011;57183;50.930;5.406;2022-10-16T15:26:40;3.33;;;0.95;;
69900;SDS011;57183;50.930;5.406;2022-10-16T15:29:05;2.10;;;0.60;;
69900;SDS011;57183;50.930;5.406;2022-10-16T15:31:32;3.33;;;0.70;;
69900;SDS011;57183;50.930;5.406;2022-10-16T15:33:58;2.50;;;0.85;;
69900;SDS011;57183;50.930;5.406;2022-10-16T15:36:29;2.92;;;0.68;;
69900;SDS011;57183;50.930;5.406;2022-10-16T15:38:58;2.08;;;0.50;;
69900;SDS011;57183;50.930;5.406;2022-10-16T15:41:24;3.25;;;0.70;;
69900;SDS011;57183;50.930;5.406;2022-10-16T15:43:50;2.75;;;0.55;;
69900;SDS011;57183;50.930;5.406;2022-10-16T15:46:20;2.50;;;0.43;;
69900;SDS011;57183;50.930;5.406;2022-10-16T15:48:50;6.55;;;0.75;;
69900;SDS011;57183;50.930;5.406;2022-10-16T15:51:21;1.55;;;0.75;;
69900;SDS011;57183;50.930;5.406;2022-10-16T15:53:47;3.63;;;0.70;;
69900;SDS011;57183;50.930;5.406;2022-10-16T15:56:13;2.33;;;0.80;;
69900;SDS011;57183;50.930;5.406;2022-10-16T15:58:39;11.02;;;2.20;;
69900;SDS011;57183;50.930;5.406;2022-10-16T16:01:05;5.93;;;3.35;;
69900;SDS011;57183;50.930;5.406;2022-10-16T16:03:31;8.73;;;4.55;;
69900;SDS011;57183;50.930;5.406;2022-10-16T16:05:57;7.68;;;3.92;;
69900;SDS011;57183;50.930;5.406;2022-10-16T16:08:28;3.90;;;3.00;;
69900;SDS011;57183;50.930;5.406;2022-10-16T16:11:00;2.88;;;1.92;;
69900;SDS011;57183;50.930;5.406;2022-10-16T16:13:26;3.80;;;2.15;;
69900;SDS011;57183;50.930;5.406;2022-10-16T16:15:52;3.70;;;1.77;;
69900;SDS011;57183;50.930;5.406;2022-10-16T16:18:18;3.28;;;1.80;;
69900;SDS011;57183;50.930;5.406;2022-10-16T16:20:44;3.75;;;1.38;;
69900;SDS011;57183;50.930;5.406;2022-10-16T16:23:09;3.47;;;1.85;;
69900;SDS011;57183;50.930;5.406;2022-10-16T16:25:35;3.47;;;1.83;;
69900;SDS011;57183;50.930;5.406;2022-10-16T16:28:01;4.22;;;2.38;;
69900;SDS011;57183;50.930;5.406;2022-10-16T16:30:27;4.35;;;2.25;;
69900;SDS011;57183;50.930;5.406;2022-10-16T16:32:52;6.25;;;2.95;;
69900;SDS011;57183;50.930;5.406;2022-10-16T16:35:18;5.40;;;2.45;;
69900;SDS011;57183;50.930;5.406;2022-10-16T16:37:44;5.88;;;3.53;;
69900;SDS011;57183;50.930;5.406;2022-10-16T16:40:09;4.18;;;2.08;;
69900;SDS011;57183;50.930;5.406;2022-10-16T16:42:35;5.80;;;2.20;;
69900;SDS011;57183;50.930;5.406;2022-10-16T16:45:01;3.03;;;2.42;;
69900;SDS011;57183;50.930;5.406;2022-10-16T16:47:26;5.45;;;3.25;;
69900;SDS011;57183;50.930;5.406;2022-10-16T16:49:52;4.45;;;3.25;;
69900;SDS011;57183;50.930;5.406;2022-10-16T16:52:18;8.05;;;4.53;;
69900;SDS011;57183;50.930;5.406;2022-10-16T16:54:44;8.02;;;4.93;;
69900;SDS011;57183;50.930;5.406;2022-10-16T16:57:16;11.10;;;4.28;;
69900;SDS011;57183;50.930;5.406;2022-10-16T16:59:43;9.02;;;3.88;;
69900;SDS011;57183;50.930;5.406;2022-10-16T17:02:08;5.60;;;2.80;;
69900;SDS011;57183;50.930;5.406;2022-10-16T17:04:34;5.32;;;3.53;;
69900;SDS011;57183;50.930;5.406;2022-10-16T17:07:00;6.07;;;3.70;;
69900;SDS011;57183;50.930;5.406;2022-10-16T17:09:25;5.78;;;3.97;;
69900;SDS011;57183;50.930;5.406;2022-10-16T17:11:51;9.88;;;4.05;;
69900;SDS011;57183;50.930;5.406;2022-10-16T17:14:17;9.27;;;4.18;;
69900;SDS011;57183;50.930;5.406;2022-10-16T17:16:43;8.20;;;3.92;;